Terminal Aerodrome Forecast
Issued by NWS Dallas/Fort Worth, TX

Home | Current Version | Previous Version | Text Only | Print | Product List | Glossary On
Versions: 1 2 3 4 5 6 7 8 9 10 11 12 13 14 15 16 17 18 19 20 21 22 23 24 25 26
544
FTUS44 KFWD 272336
TAFACT
TAF
KACT 272336Z 2800/2824 16015G25KT P6SM SCT250
     FM280700 17015KT P6SM BKN011
     FM281300 18014KT P6SM BKN025
     FM281500 18016KT P6SM SCT035 BKN045=

USA.gov is the U.S. government's official web portal to all federal, state and local government web resources and services.